createdAt,value
2023-06-08T00:00:10.001Z,22.22
2023-06-08T00:02:41.859Z,22.28
2023-06-08T00:05:13.974Z,22.10
2023-06-08T00:07:42.288Z,22.16
2023-06-08T00:10:10.786Z,22.21
2023-06-08T00:12:38.644Z,22.27
2023-06-08T00:15:07.168Z,22.22
2023-06-08T00:17:35.635Z,22.22
2023-06-08T00:20:02.672Z,22.16
2023-06-08T00:22:35.754Z,22.11
2023-06-08T00:25:03.542Z,22.08
2023-06-08T00:27:30.778Z,22.07
2023-06-08T00:29:58.167Z,22.05
2023-06-08T00:32:24.996Z,22.12
2023-06-08T00:34:51.755Z,22.05
2023-06-08T00:37:18.481Z,22.08
2023-06-08T00:39:45.329Z,21.84
2023-06-08T00:42:12.141Z,21.88
2023-06-08T00:44:38.902Z,21.87
2023-06-08T00:47:06.015Z,21.78
2023-06-08T00:49:33.521Z,21.78
2023-06-08T00:52:01.328Z,21.85
2023-06-08T00:54:33.958Z,21.81
2023-06-08T00:57:02.560Z,21.76
2023-06-08T00:59:33.470Z,21.84
2023-06-08T01:02:00.434Z,21.78
2023-06-08T01:04:27.461Z,21.81
2023-06-08T01:07:15.601Z,21.76
2023-06-08T01:09:52.618Z,21.66
2023-06-08T01:12:50.666Z,21.72
2023-06-08T01:15:28.779Z,21.78
2023-06-08T01:18:05.760Z,21.70
2023-06-08T01:20:43.088Z,21.80
2023-06-08T01:23:35.583Z,21.53
2023-06-08T01:26:04.849Z,21.53
2023-06-08T01:28:32.136Z,21.64
2023-06-08T01:30:59.837Z,21.57
2023-06-08T01:33:30.618Z,21.52
2023-06-08T01:36:18.217Z,21.36
2023-06-08T01:39:07.488Z,21.18
2023-06-08T01:41:38.688Z,21.26
2023-06-08T01:44:08.192Z,21.18
2023-06-08T01:46:35.168Z,21.18
2023-06-08T01:49:04.550Z,21.13
2023-06-08T01:51:33.653Z,21.21
2023-06-08T01:54:02.182Z,21.20
2023-06-08T01:56:33.589Z,21.23
2023-06-08T01:59:00.948Z,20.97
2023-06-08T02:01:28.020Z,21.07
2023-06-08T02:03:54.894Z,21.11
2023-06-08T02:06:21.730Z,21.00
2023-06-08T02:08:48.780Z,20.94
2023-06-08T02:11:15.594Z,21.05
2023-06-08T02:13:44.322Z,20.77
2023-06-08T02:16:12.600Z,20.80
2023-06-08T02:18:42.926Z,20.65
2023-06-08T02:21:10.778Z,20.61
2023-06-08T02:23:38.449Z,20.57
2023-06-08T02:26:08.637Z,20.47
2023-06-08T02:28:36.056Z,20.34
2023-06-08T02:31:06.450Z,20.45
2023-06-08T02:33:33.364Z,20.37
2023-06-08T02:36:01.233Z,20.36
2023-06-08T02:38:29.124Z,20.39
2023-06-08T02:40:56.013Z,20.34
2023-06-08T02:43:22.831Z,20.49
2023-06-08T02:45:50.899Z,20.58
2023-06-08T02:48:19.976Z,20.59
2023-06-08T02:50:46.690Z,20.65
2023-06-08T02:53:13.572Z,20.61
2023-06-08T02:55:40.357Z,20.65
2023-06-08T02:58:15.216Z,20.56
2023-06-08T03:00:41.993Z,20.69
2023-06-08T03:03:30.705Z,20.59
2023-06-08T03:06:02.074Z,20.61
2023-06-08T03:08:37.728Z,20.65
2023-06-08T03:11:06.579Z,20.67
2023-06-08T03:13:34.306Z,20.66
2023-06-08T03:16:01.141Z,20.58
2023-06-08T03:18:29.321Z,20.55
2023-06-08T03:20:58.294Z,20.69
2023-06-08T03:23:25.515Z,20.53
2023-06-08T03:25:54.179Z,20.61
2023-06-08T03:28:21.171Z,20.57
2023-06-08T03:30:48.825Z,20.58
2023-06-08T03:33:20.465Z,20.45
2023-06-08T03:35:54.318Z,20.58
2023-06-08T03:38:24.576Z,20.47
2023-06-08T03:40:53.897Z,20.51
2023-06-08T03:43:22.014Z,20.53
2023-06-08T03:45:49.761Z,20.53
2023-06-08T03:48:16.738Z,20.55
2023-06-08T03:50:46.423Z,20.36
2023-06-08T03:53:14.506Z,20.29
2023-06-08T03:55:41.442Z,20.29
2023-06-08T03:58:09.008Z,20.24
2023-06-08T04:00:35.953Z,20.34
2023-06-08T04:03:03.265Z,20.43
2023-06-08T04:05:30.309Z,20.48
2023-06-08T04:07:57.075Z,20.47
2023-06-08T04:10:24.528Z,20.45
2023-06-08T04:12:52.337Z,20.48
2023-06-08T04:15:19.283Z,20.50
2023-06-08T04:17:48.217Z,20.63
2023-06-08T04:20:18.686Z,20.46
2023-06-08T04:22:46.390Z,20.43
2023-06-08T04:25:14.671Z,20.50
2023-06-08T04:27:42.816Z,20.49
2023-06-08T04:30:10.243Z,20.47
2023-06-08T04:32:37.958Z,20.55
2023-06-08T04:35:06.359Z,20.62
2023-06-08T04:37:35.880Z,20.69
2023-06-08T04:40:04.753Z,20.59
2023-06-08T04:42:34.434Z,20.45
2023-06-08T04:45:05.093Z,20.51
2023-06-08T04:47:34.371Z,20.52
2023-06-08T04:50:02.133Z,20.40
2023-06-08T04:52:38.446Z,20.41
2023-06-08T04:55:06.092Z,20.53
2023-06-08T04:57:33.830Z,20.67
2023-06-08T05:00:00.604Z,20.65
2023-06-08T05:02:27.491Z,20.94
2023-06-08T05:04:54.614Z,21.08
2023-06-08T05:07:21.439Z,21.03
2023-06-08T05:09:48.496Z,21.16
2023-06-08T05:12:15.518Z,21.15
2023-06-08T05:14:42.709Z,21.38
2023-06-08T05:17:09.866Z,21.36
2023-06-08T05:19:36.739Z,21.42
2023-06-08T05:22:03.609Z,21.42
2023-06-08T05:24:30.516Z,21.51
2023-06-08T05:26:57.297Z,21.55
2023-06-08T05:29:24.046Z,21.73
2023-06-08T05:31:50.996Z,21.84
2023-06-08T05:34:18.290Z,21.92
2023-06-08T05:36:45.056Z,21.97
2023-06-08T05:39:11.874Z,21.94
2023-06-08T05:41:38.616Z,22.03
2023-06-08T05:44:05.621Z,22.13
2023-06-08T05:46:32.420Z,21.89
2023-06-08T05:48:59.126Z,22.10
2023-06-08T05:51:25.934Z,22.36
2023-06-08T05:53:52.700Z,22.21
2023-06-08T05:56:19.835Z,22.41
2023-06-08T05:58:50.046Z,22.29
2023-06-08T06:01:20.268Z,22.32
2023-06-08T06:03:48.098Z,22.42
2023-06-08T06:06:15.057Z,22.43
2023-06-08T06:08:44.391Z,22.60
2023-06-08T06:11:11.663Z,22.67
2023-06-08T06:13:38.533Z,22.78
2023-06-08T06:16:05.524Z,22.86
2023-06-08T06:18:33.824Z,22.89
2023-06-08T06:21:00.599Z,22.88
2023-06-08T06:23:27.331Z,23.18
2023-06-08T06:25:54.433Z,23.09
2023-06-08T06:28:21.234Z,23.27
2023-06-08T06:30:48.027Z,23.27
2023-06-08T06:33:14.897Z,23.29
2023-06-08T06:35:43.285Z,23.32
2023-06-08T06:38:10.021Z,23.57
2023-06-08T06:40:36.755Z,23.48
2023-06-08T06:43:03.510Z,23.50
2023-06-08T06:45:33.658Z,23.58
2023-06-08T06:48:01.541Z,23.38
2023-06-08T06:50:28.408Z,23.42
2023-06-08T06:52:55.757Z,23.68
2023-06-08T06:55:22.570Z,23.92
2023-06-08T06:57:49.701Z,23.79
2023-06-08T07:00:17.116Z,23.42
2023-06-08T07:02:43.851Z,23.60
2023-06-08T07:05:12.174Z,23.65
2023-06-08T07:07:39.242Z,23.93
2023-06-08T07:10:07.203Z,23.76
2023-06-08T07:12:34.209Z,23.84
2023-06-08T07:15:00.957Z,23.90
2023-06-08T07:17:29.299Z,23.94
2023-06-08T07:19:58.996Z,23.96
2023-06-08T07:22:43.516Z,24.16
2023-06-08T07:25:57.696Z,24.32
2023-06-08T07:28:04.099Z,24.46
2023-06-08T07:30:32.974Z,24.51
2023-06-08T07:33:00.869Z,24.44
2023-06-08T07:35:28.028Z,24.58
2023-06-08T07:37:55.920Z,24.57
2023-06-08T07:40:23.163Z,24.38
2023-06-08T07:42:49.910Z,24.43
2023-06-08T07:45:16.698Z,24.36
2023-06-08T07:47:43.488Z,24.43
2023-06-08T07:50:12.076Z,24.57
2023-06-08T07:52:39.453Z,23.98
2023-06-08T07:55:06.957Z,24.56
2023-06-08T07:57:33.700Z,24.96
2023-06-08T08:00:01.023Z,24.70
2023-06-08T08:02:29.474Z,24.77
2023-06-08T08:04:57.002Z,24.68
2023-06-08T08:07:23.715Z,24.15
2023-06-08T08:09:50.527Z,24.36
2023-06-08T08:12:19.276Z,24.68
2023-06-08T08:14:46.207Z,24.92
2023-06-08T08:17:13.084Z,24.64
2023-06-08T08:19:41.741Z,24.75
2023-06-08T08:22:08.692Z,24.47
2023-06-08T08:24:35.879Z,24.54
2023-06-08T08:27:02.990Z,24.52
2023-06-08T08:29:30.079Z,24.90
2023-06-08T08:31:57.506Z,24.48
2023-06-08T08:34:24.937Z,24.43
2023-06-08T08:36:52.402Z,24.96
2023-06-08T08:39:19.300Z,25.23
2023-06-08T08:41:52.523Z,25.39
2023-06-08T08:44:20.954Z,25.63
2023-06-08T08:46:50.693Z,25.69
2023-06-08T08:49:18.363Z,25.85
2023-06-08T08:51:51.180Z,25.91
2023-06-08T08:54:19.076Z,25.91
2023-06-08T08:56:47.054Z,25.91
2023-06-08T08:59:14.083Z,26.03
2023-06-08T09:01:41.049Z,26.02
2023-06-08T09:04:08.436Z,26.10
2023-06-08T09:06:35.729Z,26.23
2023-06-08T09:09:02.684Z,26.21
2023-06-08T09:11:29.616Z,26.22
2023-06-08T09:14:10.421Z,26.20
2023-06-08T09:16:44.587Z,26.27
2023-06-08T09:19:12.860Z,26.23
2023-06-08T09:21:41.809Z,26.06
2023-06-08T09:24:19.405Z,26.18
2023-06-08T09:26:56.993Z,26.28
2023-06-08T09:29:43.107Z,26.36
2023-06-08T09:32:14.235Z,26.41
2023-06-08T09:34:52.244Z,26.38
2023-06-08T09:37:20.271Z,26.36
2023-06-08T09:39:48.434Z,26.48
2023-06-08T09:42:15.427Z,26.51
2023-06-08T09:44:42.241Z,26.33
2023-06-08T09:47:27.126Z,26.52
2023-06-08T09:49:56.267Z,26.34
2023-06-08T09:52:24.747Z,26.41
2023-06-08T09:54:52.882Z,26.40
2023-06-08T09:57:22.957Z,26.55
2023-06-08T10:00:15.576Z,26.58
2023-06-08T10:02:54.532Z,26.66
2023-06-08T10:05:23.703Z,26.61
2023-06-08T10:07:55.791Z,26.64
2023-06-08T10:10:25.736Z,26.53
2023-06-08T10:12:53.122Z,26.48
2023-06-08T10:15:22.335Z,26.67
2023-06-08T10:17:51.064Z,26.78
2023-06-08T10:20:18.537Z,26.85
2023-06-08T10:22:46.758Z,26.85
2023-06-08T10:25:16.829Z,26.94
2023-06-08T10:27:51.650Z,26.82
2023-06-08T10:30:35.060Z,26.68
2023-06-08T10:33:10.210Z,26.80
2023-06-08T10:35:38.653Z,26.73
2023-06-08T10:38:13.020Z,26.85
2023-06-08T10:40:51.798Z,26.96
2023-06-08T10:43:48.195Z,26.92
2023-06-08T10:46:10.542Z,26.80
2023-06-08T10:48:38.393Z,26.90
2023-06-08T10:51:11.510Z,26.88
2023-06-08T10:53:58.649Z,26.87
2023-06-08T10:56:27.770Z,26.89
2023-06-08T10:58:54.876Z,26.94
2023-06-08T11:01:22.157Z,27.02
2023-06-08T11:03:49.430Z,27.15
2023-06-08T11:06:17.038Z,27.21
2023-06-08T11:08:44.255Z,27.36
2023-06-08T11:11:12.120Z,27.23
2023-06-08T11:13:38.931Z,27.35
2023-06-08T11:16:05.849Z,27.50
2023-06-08T11:18:34.218Z,27.41
2023-06-08T11:21:01.551Z,27.36
2023-06-08T11:23:32.922Z,27.42
2023-06-08T11:26:01.010Z,27.36
2023-06-08T11:28:27.861Z,27.23
2023-06-08T11:30:55.019Z,27.35
2023-06-08T11:33:22.682Z,27.30
2023-06-08T11:35:53.692Z,27.34
2023-06-08T11:38:24.988Z,27.11
2023-06-08T11:40:52.233Z,27.31
2023-06-08T11:43:22.569Z,27.41
2023-06-08T11:45:49.350Z,27.41
2023-06-08T11:48:17.548Z,27.35
2023-06-08T11:50:49.310Z,27.35
2023-06-08T11:53:20.991Z,27.28
2023-06-08T11:55:51.479Z,27.27
2023-06-08T11:58:23.595Z,27.26
2023-06-08T12:00:50.575Z,27.27
2023-06-08T12:03:17.412Z,27.07
2023-06-08T12:05:45.643Z,26.92
2023-06-08T12:08:15.862Z,26.88
2023-06-08T12:10:47.820Z,26.65
2023-06-08T12:13:24.203Z,26.47
2023-06-08T12:15:53.848Z,26.28
2023-06-08T12:18:23.061Z,26.14
2023-06-08T12:20:54.014Z,25.95
2023-06-08T12:23:23.949Z,25.74
2023-06-08T12:25:52.933Z,25.78
2023-06-08T12:28:23.248Z,25.80
2023-06-08T12:30:50.482Z,25.79
2023-06-08T12:33:22.033Z,25.81
2023-06-08T12:35:52.364Z,25.83
2023-06-08T12:38:19.556Z,25.82
2023-06-08T12:40:48.823Z,25.86
2023-06-08T12:43:17.798Z,25.93
2023-06-08T12:45:45.437Z,26.05
2023-06-08T12:48:12.586Z,26.10
2023-06-08T12:50:39.511Z,26.08
2023-06-08T12:53:07.085Z,26.10
2023-06-08T12:55:34.131Z,26.21
2023-06-08T12:58:00.876Z,26.21
2023-06-08T13:00:27.818Z,26.25
2023-06-08T13:02:54.836Z,26.46
2023-06-08T13:05:22.793Z,26.58
2023-06-08T13:07:50.560Z,26.78
2023-06-08T13:10:17.548Z,26.95
2023-06-08T13:12:44.764Z,27.07
2023-06-08T13:15:11.749Z,27.18
2023-06-08T13:17:38.850Z,27.15
2023-06-08T13:20:06.946Z,27.12
2023-06-08T13:22:34.057Z,27.02
2023-06-08T13:25:01.013Z,27.04
2023-06-08T13:27:27.812Z,27.09
2023-06-08T13:29:54.810Z,27.16
2023-06-08T13:32:21.862Z,27.15
2023-06-08T13:34:50.419Z,27.17
2023-06-08T13:37:17.152Z,27.24
2023-06-08T13:39:44.333Z,27.19
2023-06-08T13:42:11.232Z,27.19
2023-06-08T13:44:41.620Z,27.22
2023-06-08T13:47:08.934Z,27.26
2023-06-08T13:49:36.053Z,27.30
2023-06-08T13:52:03.004Z,27.34
2023-06-08T13:54:29.734Z,27.32
2023-06-08T13:56:56.555Z,27.28
2023-06-08T13:59:23.382Z,27.20
2023-06-08T14:01:50.399Z,27.21
2023-06-08T14:04:18.164Z,27.31
2023-06-08T14:06:45.424Z,27.27
2023-06-08T14:09:12.873Z,27.27
2023-06-08T14:11:40.776Z,27.34
2023-06-08T14:14:08.077Z,27.39
2023-06-08T14:16:34.917Z,27.43
2023-06-08T14:19:01.840Z,27.44
2023-06-08T14:21:28.777Z,27.55
2023-06-08T14:23:57.407Z,27.59
2023-06-08T14:26:24.620Z,27.64
2023-06-08T14:28:51.567Z,27.73
2023-06-08T14:31:18.443Z,27.74
2023-06-08T14:33:45.456Z,27.79
2023-06-08T14:36:12.285Z,27.98
2023-06-08T14:38:39.041Z,28.17
2023-06-08T14:41:05.785Z,28.34
2023-06-08T14:43:32.566Z,28.50
2023-06-08T14:45:59.454Z,28.46
2023-06-08T14:48:26.293Z,28.58
2023-06-08T14:50:55.354Z,28.63
2023-06-08T14:53:24.415Z,28.65
2023-06-08T14:55:51.325Z,28.72
2023-06-08T14:58:18.198Z,29.79
2023-06-08T15:00:44.916Z,31.05
2023-06-08T15:03:11.921Z,32.52
2023-06-08T15:05:40.563Z,33.57
2023-06-08T15:08:07.625Z,34.54
2023-06-08T15:10:34.492Z,35.89
2023-06-08T15:13:01.525Z,36.98
2023-06-08T15:15:28.432Z,37.78
2023-06-08T15:17:55.437Z,38.63
2023-06-08T15:20:22.245Z,39.12
2023-06-08T15:22:49.188Z,39.20
2023-06-08T15:25:16.598Z,39.46
2023-06-08T15:27:43.567Z,38.08
2023-06-08T15:30:11.423Z,35.79
2023-06-08T15:32:38.222Z,32.91
2023-06-08T15:35:07.132Z,31.39
2023-06-08T15:37:35.366Z,31.64
2023-06-08T15:40:03.654Z,32.54
2023-06-08T15:42:33.557Z,33.03
2023-06-08T15:45:00.356Z,32.22
2023-06-08T15:47:27.234Z,30.54
2023-06-08T15:49:53.973Z,29.95
2023-06-08T15:52:20.776Z,29.42
2023-06-08T15:54:47.623Z,29.28
2023-06-08T15:57:17.464Z,29.20
2023-06-08T15:59:47.555Z,28.90
2023-06-08T16:02:15.474Z,28.53
2023-06-08T16:04:42.491Z,28.44
2023-06-08T16:07:09.488Z,28.31
2023-06-08T16:09:36.402Z,28.42
2023-06-08T16:12:03.509Z,28.59
2023-06-08T16:14:30.424Z,28.41
2023-06-08T16:16:57.405Z,28.26
2023-06-08T16:19:24.351Z,28.20
2023-06-08T16:21:51.687Z,28.18
2023-06-08T16:24:25.808Z,28.13
2023-06-08T16:26:53.988Z,28.21
2023-06-08T16:29:21.766Z,28.00
2023-06-08T16:31:52.489Z,27.80
2023-06-08T16:34:20.164Z,27.70
2023-06-08T16:36:47.903Z,27.63
2023-06-08T16:39:16.299Z,27.75
2023-06-08T16:41:48.180Z,27.77
2023-06-08T16:44:15.328Z,27.88
2023-06-08T16:46:42.781Z,27.96
2023-06-08T16:49:10.640Z,27.83
2023-06-08T16:51:37.765Z,27.83
2023-06-08T16:54:08.205Z,27.96
2023-06-08T16:56:35.127Z,27.92
2023-06-08T16:59:02.596Z,27.76
2023-06-08T17:01:29.497Z,27.58
2023-06-08T17:03:57.869Z,27.49
2023-06-08T17:06:24.884Z,27.49
2023-06-08T17:08:51.734Z,27.48
2023-06-08T17:11:18.495Z,27.29
2023-06-08T17:13:45.332Z,27.39
2023-06-08T17:16:12.269Z,27.29
2023-06-08T17:18:39.321Z,27.23
2023-06-08T17:21:08.501Z,27.11
2023-06-08T17:23:35.722Z,27.08
2023-06-08T17:26:02.649Z,27.19
2023-06-08T17:28:29.393Z,27.02
2023-06-08T17:30:56.150Z,26.98
2023-06-08T17:33:25.186Z,26.75
2023-06-08T17:35:52.265Z,26.75
2023-06-08T17:38:19.099Z,26.55
2023-06-08T17:40:46.136Z,26.19
2023-06-08T17:43:13.063Z,25.98
2023-06-08T17:45:39.834Z,25.95
2023-06-08T17:48:06.963Z,26.03
2023-06-08T17:50:36.885Z,25.73
2023-06-08T17:53:06.403Z,25.71
2023-06-08T17:55:33.366Z,25.60
2023-06-08T17:58:00.438Z,25.42
2023-06-08T18:00:28.834Z,25.27
2023-06-08T18:02:56.337Z,25.21
2023-06-08T18:05:24.368Z,25.23
2023-06-08T18:07:51.414Z,25.11
2023-06-08T18:10:18.850Z,25.13
2023-06-08T18:12:46.744Z,25.01
2023-06-08T18:15:13.616Z,25.14
2023-06-08T18:17:40.510Z,25.06
2023-06-08T18:20:08.379Z,25.05
2023-06-08T18:22:35.347Z,25.00
2023-06-08T18:25:03.788Z,24.97
2023-06-08T18:27:34.184Z,24.90
2023-06-08T18:30:01.306Z,24.92
2023-06-08T18:32:28.267Z,24.99
2023-06-08T18:34:55.334Z,24.85
2023-06-08T18:37:22.300Z,24.78
2023-06-08T18:39:57.823Z,24.75
2023-06-08T18:42:26.589Z,24.57
2023-06-08T18:44:54.078Z,24.51
2023-06-08T18:47:22.822Z,24.37
2023-06-08T18:49:49.807Z,24.49
2023-06-08T18:52:17.962Z,24.48
2023-06-08T18:54:46.699Z,24.25
2023-06-08T18:57:13.943Z,24.26
2023-06-08T18:59:40.853Z,24.27
2023-06-08T19:02:07.992Z,24.31
2023-06-08T19:04:34.853Z,24.24
2023-06-08T19:07:01.664Z,24.17
2023-06-08T19:09:29.001Z,24.19
2023-06-08T19:11:56.269Z,24.08
2023-06-08T19:14:23.080Z,24.02
2023-06-08T19:16:50.059Z,23.92
2023-06-08T19:19:18.009Z,23.91
2023-06-08T19:21:45.010Z,23.89
2023-06-08T19:24:12.060Z,23.85
2023-06-08T19:26:39.070Z,23.83
2023-06-08T19:29:07.210Z,23.90
2023-06-08T19:31:34.306Z,23.92
2023-06-08T19:34:01.464Z,23.78
2023-06-08T19:36:28.385Z,23.79
2023-06-08T19:38:55.418Z,23.79
2023-06-08T19:41:22.413Z,23.91
2023-06-08T19:43:52.306Z,23.85
2023-06-08T19:46:20.034Z,23.95
2023-06-08T19:48:48.299Z,23.88
2023-06-08T19:51:15.150Z,23.84
2023-06-08T19:53:42.122Z,23.81
2023-06-08T19:56:09.368Z,23.82
2023-06-08T19:58:36.108Z,23.78
2023-06-08T20:01:02.875Z,23.85
2023-06-08T20:03:29.745Z,23.91
2023-06-08T20:05:56.600Z,23.82
2023-06-08T20:08:23.363Z,23.59
2023-06-08T20:10:50.953Z,23.58
2023-06-08T20:13:17.725Z,23.69
2023-06-08T20:15:44.566Z,23.72
2023-06-08T20:18:11.471Z,23.72
2023-06-08T20:20:38.239Z,23.87
2023-06-08T20:23:05.607Z,23.74
2023-06-08T20:25:32.392Z,23.73
2023-06-08T20:27:59.170Z,23.55
2023-06-08T20:30:27.187Z,23.66
2023-06-08T20:32:54.128Z,23.75
2023-06-08T20:35:21.120Z,23.83
2023-06-08T20:37:47.973Z,23.86
2023-06-08T20:40:15.142Z,23.73
2023-06-08T20:42:42.275Z,23.64
2023-06-08T20:45:09.674Z,23.54
2023-06-08T20:47:36.605Z,23.56
2023-06-08T20:50:04.735Z,23.45
2023-06-08T20:52:32.614Z,23.66
2023-06-08T20:54:59.502Z,23.62
2023-06-08T20:57:26.394Z,23.49
2023-06-08T20:59:53.260Z,23.42
2023-06-08T21:02:20.010Z,23.42
2023-06-08T21:04:46.887Z,23.18
2023-06-08T21:07:13.595Z,23.30
2023-06-08T21:09:40.381Z,23.23
2023-06-08T21:12:08.086Z,23.03
2023-06-08T21:14:34.828Z,23.14
2023-06-08T21:17:06.139Z,23.13
2023-06-08T21:19:32.980Z,23.04
2023-06-08T21:22:00.370Z,23.02
2023-06-08T21:24:28.151Z,22.90
2023-06-08T21:26:59.657Z,22.96
2023-06-08T21:29:26.478Z,23.03
2023-06-08T21:31:53.327Z,22.92
2023-06-08T21:34:20.578Z,22.96
2023-06-08T21:36:47.683Z,22.77
2023-06-08T21:39:14.481Z,22.78
2023-06-08T21:41:41.324Z,22.50
2023-06-08T21:44:08.097Z,22.60
2023-06-08T21:46:35.079Z,22.48
2023-06-08T21:49:01.941Z,22.71
2023-06-08T21:51:28.811Z,22.43
2023-06-08T21:53:55.630Z,22.45
2023-06-08T21:56:22.409Z,22.55
2023-06-08T21:58:50.313Z,22.54
2023-06-08T22:01:17.432Z,22.42
2023-06-08T22:03:44.507Z,22.36
2023-06-08T22:06:11.540Z,22.43
2023-06-08T22:08:38.880Z,22.36
2023-06-08T22:11:05.688Z,22.29
2023-06-08T22:13:33.875Z,22.21
2023-06-08T22:16:02.330Z,22.32
2023-06-08T22:18:29.910Z,22.24
2023-06-08T22:21:00.854Z,22.22
2023-06-08T22:23:28.622Z,22.16
2023-06-08T22:25:55.700Z,22.17
2023-06-08T22:28:22.535Z,22.08
2023-06-08T22:30:49.694Z,22.26
2023-06-08T22:33:17.474Z,22.12
2023-06-08T22:35:45.679Z,22.05
2023-06-08T22:38:13.817Z,22.01
2023-06-08T22:43:07.814Z,22.10
2023-06-08T22:45:34.652Z,22.12
2023-06-08T22:48:01.467Z,22.06
2023-06-08T22:50:29.359Z,22.02
2023-06-08T22:52:57.247Z,21.96
2023-06-08T22:55:24.089Z,22.12
2023-06-08T22:57:50.898Z,22.15
2023-06-08T23:00:18.380Z,22.09
2023-06-08T23:02:45.552Z,22.12
2023-06-08T23:05:12.873Z,22.03
2023-06-08T23:07:42.024Z,22.16
2023-06-08T23:10:09.114Z,21.98
2023-06-08T23:12:36.094Z,21.82
2023-06-08T23:15:06.801Z,21.80
2023-06-08T23:17:41.106Z,21.63
2023-06-08T23:20:10.504Z,21.84
2023-06-08T23:22:37.667Z,21.93
2023-06-08T23:25:05.964Z,21.91
2023-06-08T23:27:34.015Z,21.82
2023-06-08T23:30:01.242Z,21.76
2023-06-08T23:32:32.028Z,21.74
2023-06-08T23:34:58.989Z,21.92
2023-06-08T23:37:26.519Z,21.91
2023-06-08T23:39:53.445Z,21.90
2023-06-08T23:42:25.067Z,21.86
2023-06-08T23:44:56.963Z,21.69
2023-06-08T23:47:24.455Z,21.83
2023-06-08T23:49:51.375Z,21.79
2023-06-08T23:52:20.219Z,21.77
2023-06-08T23:54:48.732Z,21.77
2023-06-08T23:57:16.024Z,21.81
2023-06-08T23:59:42.807Z,21.71
